Allegany Spring, Virginia
Current Conditions -  °F | °C
As of 8:55 AM on Wednesday 26 Nov 2014 (Local Time) from KBCB Reporting Station
Light Snow Light Snow  
Wind Chill:   Ceiling: 500
Heat Index:   Visibility: 0.75mi
Dew Point:   Wind: 0mph
Humidity: 100%   Direction: NA
Pressure: 30.02"   Gusts: NA
Location:  37.1336°N, 80.2545°W
Report Text: KBCB 261355Z AUTO 00000KT 3/4SM -SN OVC005 01/01 A3002 RMK AO2
Loading
Personal Weather Stations






























Interactive Weather Map New forecast layout! Learn more

10-Day Weather Forecast

Advertisements
Track Severe Weather on mobile